createdAt,value
2022-09-23T00:03:07.097Z,100293.44
2022-09-23T00:08:11.682Z,100292.56
2022-09-23T00:13:13.290Z,100296.78
2022-09-23T00:18:15.001Z,100291.34
2022-09-23T00:23:16.623Z,100284.94
2022-09-23T00:28:18.228Z,100292.25
2022-09-23T00:33:19.902Z,100280.34
2022-09-23T00:38:21.503Z,100288.16
2022-09-23T00:43:47.027Z,100286.22
2022-09-23T00:48:53.286Z,100285.75
2022-09-23T00:53:55.678Z,100281.41
2022-09-23T00:58:57.393Z,100280.41
2022-09-23T01:03:59.253Z,100274.59
2022-09-23T01:09:00.865Z,100281.41
2022-09-23T01:14:18.034Z,100276.22
2022-09-23T01:19:50.789Z,100268.97
2022-09-23T01:25:21.295Z,100260.50
2022-09-23T01:31:05.051Z,100252.13
2022-09-23T01:36:35.472Z,100255.91
2022-09-23T01:41:58.600Z,100248.03
2022-09-23T01:47:11.068Z,100242.47
2022-09-23T01:52:25.852Z,100240.19
2022-09-23T01:57:33.471Z,100241.50
2022-09-23T02:02:49.373Z,100230.63
2022-09-23T02:08:23.701Z,100225.91
2022-09-23T02:13:40.178Z,100225.53
2022-09-23T02:18:55.983Z,100223.59
2022-09-23T02:24:09.134Z,100222.63
2022-09-23T02:29:37.700Z,100214.28
2022-09-23T02:34:51.487Z,100213.69
2022-09-23T02:40:09.766Z,100206.81
2022-09-23T02:45:11.564Z,100202.69
2022-09-23T02:50:13.889Z,100195.44
2022-09-23T02:55:22.274Z,100194.34
2022-09-23T03:00:24.059Z,100195.53
2022-09-23T03:05:30.356Z,100188.88
2022-09-23T03:10:50.430Z,100188.16
2022-09-23T03:16:07.517Z,100170.13
2022-09-23T03:21:16.228Z,100176.81
2022-09-23T03:26:27.543Z,100167.47
2022-09-23T03:31:30.197Z,100163.84
2022-09-23T03:36:51.668Z,100160.69
2022-09-23T03:41:57.248Z,100164.84
2022-09-23T03:47:02.426Z,100153.81
2022-09-23T03:52:04.055Z,100154.06
2022-09-23T03:57:05.725Z,100159.16
2022-09-23T04:02:07.914Z,100155.28
2022-09-23T04:07:10.924Z,100147.53
2022-09-23T04:12:15.393Z,100144.38
2022-09-23T04:17:17.031Z,100140.75
2022-09-23T04:22:18.699Z,100143.66
2022-09-23T04:27:20.393Z,100147.13
2022-09-23T04:32:21.994Z,100143.06
2022-09-23T04:37:23.665Z,100136.75
2022-09-23T04:42:28.855Z,100144.97
2022-09-23T04:47:32.412Z,100140.00
2022-09-23T04:52:34.033Z,100134.72
2022-09-23T04:57:35.722Z,100135.19
2022-09-23T05:02:43.453Z,100132.16
2022-09-23T05:07:45.053Z,100126.03
2022-09-23T05:12:46.687Z,100122.75
2022-09-23T05:17:48.301Z,100126.75
2022-09-23T05:22:49.921Z,100137.75
2022-09-23T05:27:51.960Z,100145.63
2022-09-23T05:32:54.202Z,100142.47
2022-09-23T05:37:55.826Z,100140.75
2022-09-23T05:42:57.869Z,100141.16
2022-09-23T05:47:59.493Z,100128.66
2022-09-23T05:53:01.133Z,100136.28
2022-09-23T05:58:02.741Z,100141.22
2022-09-23T06:03:04.576Z,100129.94
2022-09-23T06:08:07.387Z,100123.09
2022-09-23T06:13:09.872Z,100133.00
2022-09-23T06:18:12.540Z,100130.50
2022-09-23T06:23:14.144Z,100119.00
2022-09-23T06:28:15.728Z,100126.03
2022-09-23T06:33:23.242Z,100123.97
2022-09-23T06:38:34.293Z,100130.56
2022-09-23T06:43:35.940Z,100127.34
2022-09-23T06:48:37.553Z,100129.53
2022-09-23T06:53:39.485Z,100124.41
2022-09-23T06:58:41.457Z,100115.72
2022-09-23T07:03:45.235Z,100121.94
2022-09-23T07:08:48.242Z,100124.78
2022-09-23T07:13:49.900Z,100121.16
2022-09-23T07:18:53.524Z,100124.09
2022-09-23T07:23:58.174Z,100111.69
2022-09-23T07:29:07.528Z,100102.94
2022-09-23T07:34:11.461Z,100118.53
2022-09-23T07:39:13.722Z,100111.25
2022-09-23T07:44:16.337Z,100103.13
2022-09-23T07:49:17.946Z,100104.66
2022-09-23T07:54:20.060Z,100100.56
2022-09-23T07:59:21.906Z,100084.53
2022-09-23T08:04:26.815Z,100093.97
2022-09-23T08:09:34.818Z,100083.72
2022-09-23T08:14:36.644Z,100077.00
2022-09-23T08:19:39.188Z,100085.44
2022-09-23T08:24:41.098Z,100086.75
2022-09-23T08:29:42.717Z,100069.41
2022-09-23T08:34:46.734Z,100072.19
2022-09-23T08:39:48.333Z,100064.69
2022-09-23T08:44:54.993Z,100056.16
2022-09-23T08:50:07.370Z,100054.00
2022-09-23T08:55:13.776Z,100042.97
2022-09-23T09:00:20.878Z,100033.06
2022-09-23T09:05:28.906Z,100034.88
2022-09-23T09:10:47.036Z,100030.38
2022-09-23T09:16:06.439Z,100026.53
2022-09-23T09:21:12.648Z,100026.53
2022-09-23T09:26:21.853Z,100029.75
2022-09-23T09:31:30.988Z,100021.75
2022-09-23T09:36:44.408Z,100028.59
2022-09-23T09:41:50.041Z,100024.31
2022-09-23T09:47:28.834Z,100013.50
2022-09-23T09:52:31.786Z,100019.28
2022-09-23T09:57:39.780Z,100014.84
2022-09-23T10:02:41.995Z,100008.16
2022-09-23T10:07:43.900Z,100005.41
2022-09-23T10:12:47.299Z,99997.47
2022-09-23T10:17:51.326Z,99992.47
2022-09-23T10:22:53.202Z,99992.69
2022-09-23T10:27:54.856Z,99978.78
2022-09-23T10:32:57.072Z,99972.97
2022-09-23T10:38:01.580Z,99983.47
2022-09-23T10:43:37.904Z,99970.50
2022-09-23T10:49:10.071Z,99961.31
2022-09-23T10:54:36.370Z,99956.81
2022-09-23T11:00:06.017Z,99954.94
2022-09-23T11:06:01.204Z,99954.56
2022-09-23T11:11:31.016Z,99932.84
2022-09-23T11:16:46.568Z,99931.16
2022-09-23T11:22:01.298Z,99917.31
2022-09-23T11:27:11.646Z,99923.16
2022-09-23T11:32:27.636Z,99918.81
2022-09-23T11:37:46.457Z,99916.31
2022-09-23T11:42:58.222Z,99912.38
2022-09-23T11:48:09.814Z,99905.34
2022-09-23T11:53:30.014Z,99899.06
2022-09-23T11:58:37.915Z,99896.59
2022-09-23T12:03:55.685Z,99885.34
2022-09-23T12:09:03.914Z,99881.84
2022-09-23T12:14:25.919Z,99877.50
2022-09-23T12:19:45.498Z,99875.66
2022-09-23T12:25:10.418Z,99869.94
2022-09-23T12:30:25.351Z,99864.97
2022-09-23T12:35:40.089Z,99870.66
2022-09-23T12:40:43.646Z,99861.16
2022-09-23T12:45:45.564Z,99863.09
2022-09-23T12:51:03.774Z,99857.16
2022-09-23T12:56:23.739Z,99858.78
2022-09-23T13:01:26.827Z,99844.13
2022-09-23T13:06:39.192Z,99845.19
2022-09-23T13:11:45.342Z,99837.44
2022-09-23T13:16:48.409Z,99833.66
2022-09-23T13:21:51.400Z,99828.09
2022-09-23T13:26:55.664Z,99817.94
2022-09-23T13:31:58.122Z,99819.69
2022-09-23T13:37:22.808Z,99805.41
2022-09-23T13:42:28.662Z,99804.19
2022-09-23T13:47:31.321Z,99795.97
2022-09-23T13:52:33.169Z,99795.56
2022-09-23T13:57:35.082Z,99784.38
2022-09-23T14:02:43.135Z,99794.19
2022-09-23T14:07:45.089Z,99794.59
2022-09-23T14:12:48.897Z,99777.91
2022-09-23T14:17:54.582Z,99779.09
2022-09-23T14:23:09.631Z,99769.09
2022-09-23T14:28:21.091Z,99758.75
2022-09-23T14:33:33.318Z,99759.28
2022-09-23T14:38:50.812Z,99754.22
2022-09-23T14:43:58.702Z,99743.97
2022-09-23T14:49:12.260Z,99740.00
2022-09-23T14:54:44.057Z,99732.34
2022-09-23T15:00:09.386Z,99747.28
2022-09-23T15:05:23.252Z,99730.97
2022-09-23T15:10:31.895Z,99732.97
2022-09-23T15:15:33.888Z,99730.09
2022-09-23T15:20:36.143Z,99723.03
2022-09-23T15:25:41.226Z,99730.66
2022-09-23T15:30:42.906Z,99727.16
2022-09-23T15:35:48.919Z,99725.53
2022-09-23T15:40:50.691Z,99721.97
2022-09-23T15:45:57.234Z,99716.34
2022-09-23T15:51:04.018Z,99707.59
2022-09-23T15:56:06.292Z,99707.16
2022-09-23T16:01:15.687Z,99698.13
2022-09-23T16:06:17.334Z,99688.22
2022-09-23T16:11:23.577Z,99690.16
2022-09-23T16:16:27.817Z,99683.38
2022-09-23T16:21:29.606Z,99681.13
2022-09-23T16:26:35.580Z,99684.63
2022-09-23T16:31:38.752Z,99688.56
2022-09-23T16:36:43.127Z,99683.94
2022-09-23T16:41:44.766Z,99686.03
2022-09-23T16:46:46.395Z,99694.00
2022-09-23T16:51:48.190Z,99696.34
2022-09-23T16:56:50.506Z,99685.41
2022-09-23T17:02:10.825Z,99681.72
2022-09-23T17:07:12.706Z,99681.06
2022-09-23T17:12:32.355Z,99680.19
2022-09-23T17:17:37.548Z,99675.72
2022-09-23T17:22:39.146Z,99683.16
2022-09-23T17:27:40.880Z,99680.03
2022-09-23T17:32:42.572Z,99680.34
2022-09-23T17:37:44.166Z,99676.31
2022-09-23T17:42:45.774Z,99677.91
2022-09-23T17:47:51.286Z,99669.44
2022-09-23T17:52:52.886Z,99677.03
2022-09-23T17:57:54.494Z,99682.94
2022-09-23T18:02:56.132Z,99682.94
2022-09-23T18:07:57.745Z,99689.22
2022-09-23T18:12:59.372Z,99678.63
2022-09-23T18:18:00.994Z,99687.59
2022-09-23T18:23:02.620Z,99682.41
2022-09-23T18:28:04.283Z,99680.19
2022-09-23T18:33:05.895Z,99680.81
2022-09-23T18:38:07.767Z,99686.41
2022-09-23T18:43:09.380Z,99679.38
2022-09-23T18:48:29.655Z,99683.09
2022-09-23T18:53:32.160Z,99685.63
2022-09-23T18:58:33.847Z,99684.75
2022-09-23T19:03:36.593Z,99688.00
2022-09-23T19:08:38.638Z,99685.81
2022-09-23T19:13:40.542Z,99675.91
2022-09-23T19:18:44.406Z,99684.31
2022-09-23T19:23:49.294Z,99676.59
2022-09-23T19:28:53.388Z,99682.16
2022-09-23T19:34:00.776Z,99692.06
2022-09-23T19:39:08.534Z,99688.00
2022-09-23T19:44:10.285Z,99688.38
2022-09-23T19:49:12.169Z,99684.34
2022-09-23T19:54:20.562Z,99683.53
2022-09-23T19:59:22.437Z,99682.69
2022-09-23T20:04:24.157Z,99682.31
2022-09-23T20:09:29.014Z,99681.00
2022-09-23T20:14:31.400Z,99685.53
2022-09-23T20:19:33.061Z,99674.78
2022-09-23T20:24:34.674Z,99674.13
2022-09-23T20:29:37.419Z,99668.25
2022-09-23T20:34:40.174Z,99666.56
2022-09-23T20:39:41.785Z,99663.00
2022-09-23T20:44:45.006Z,99664.78
2022-09-23T20:49:46.654Z,99663.19
2022-09-23T20:54:50.423Z,99656.91
2022-09-23T20:59:52.034Z,99655.22
2022-09-23T21:04:53.622Z,99660.25
2022-09-23T21:09:55.208Z,99653.28
2022-09-23T21:14:56.805Z,99646.75
2022-09-23T21:20:01.429Z,99644.25
2022-09-23T21:25:29.888Z,99643.78
2022-09-23T21:30:25.637Z,99642.63
2022-09-23T21:35:27.382Z,99635.03
2022-09-23T21:40:47.492Z,99633.41
2022-09-23T21:45:49.752Z,99640.25
2022-09-23T21:50:56.767Z,99633.19
2022-09-23T21:56:07.224Z,99634.09
2022-09-23T22:01:15.571Z,99644.72
2022-09-23T22:06:21.623Z,99638.16
2022-09-23T22:11:43.112Z,99632.78
2022-09-23T22:16:45.100Z,99626.75
2022-09-23T22:21:47.140Z,99621.72
2022-09-23T22:26:48.782Z,99618.75
2022-09-23T22:32:08.955Z,99620.59
2022-09-23T22:37:10.591Z,99614.56
2022-09-23T22:42:16.150Z,99611.03
2022-09-23T22:47:19.946Z,99609.19
2022-09-23T22:52:24.569Z,99611.72
2022-09-23T22:57:26.605Z,99593.28
2022-09-23T23:02:28.291Z,99594.13
2022-09-23T23:07:29.884Z,99600.66
2022-09-23T23:12:33.498Z,99591.63
2022-09-23T23:17:35.121Z,99587.78
2022-09-23T23:22:36.717Z,99587.06
2022-09-23T23:27:38.382Z,99585.56
2022-09-23T23:32:39.995Z,99580.69
2022-09-23T23:37:42.683Z,99578.88
2022-09-23T23:42:44.345Z,99588.91
2022-09-23T23:47:46.423Z,99590.09
2022-09-23T23:52:48.073Z,99578.84
2022-09-23T23:57:51.616Z,99576.31
